sensor_id;sensor_type;location;lat;lon;timestamp;P1;P2;P0
55549;PMS7003;41397;49.972;18.944;2023-04-24T00:01:28;55;45;30
55549;PMS7003;41397;49.972;18.944;2023-04-24T00:04:30;53;44;28
55549;PMS7003;41397;49.972;18.944;2023-04-24T00:07:32;45;39;25
55549;PMS7003;41397;49.972;18.944;2023-04-24T00:10:34;50;43;30
55549;PMS7003;41397;49.972;18.944;2023-04-24T00:13:36;53;44;28
55549;PMS7003;41397;49.972;18.944;2023-04-24T00:16:38;59;45;30
55549;PMS7003;41397;49.972;18.944;2023-04-24T00:19:40;42;37;25
55549;PMS7003;41397;49.972;18.944;2023-04-24T00:22:41;43;38;28
55549;PMS7003;41397;49.972;18.944;2023-04-24T00:25:43;51;43;28
55549;PMS7003;41397;49.972;18.944;2023-04-24T00:28:44;46;40;28
55549;PMS7003;41397;49.972;18.944;2023-04-24T00:31:45;47;41;27
55549;PMS7003;41397;49.972;18.944;2023-04-24T00:34:47;53;41;27
55549;PMS7003;41397;49.972;18.944;2023-04-24T00:37:48;52;43;30
55549;PMS7003;41397;49.972;18.944;2023-04-24T00:40:50;48;41;28
55549;PMS7003;41397;49.972;18.944;2023-04-24T00:43:52;47;41;27
55549;PMS7003;41397;49.972;18.944;2023-04-24T00:46:54;40;36;25
55549;PMS7003;41397;49.972;18.944;2023-04-24T00:49:56;48;41;25
55549;PMS7003;41397;49.972;18.944;2023-04-24T00:52:57;53;44;29
55549;PMS7003;41397;49.972;18.944;2023-04-24T00:55:59;43;37;26
55549;PMS7003;41397;49.972;18.944;2023-04-24T00:59:01;48;41;26
55549;PMS7003;41397;49.972;18.944;2023-04-24T01:02:03;45;39;26
55549;PMS7003;41397;49.972;18.944;2023-04-24T01:05:04;47;41;28
55549;PMS7003;41397;49.972;18.944;2023-04-24T01:08:08;46;40;28
55549;PMS7003;41397;49.972;18.944;2023-04-24T01:11:12;45;39;27
55549;PMS7003;41397;49.972;18.944;2023-04-24T01:14:13;52;43;29
55549;PMS7003;41397;49.972;18.944;2023-04-24T01:17:14;48;41;26
55549;PMS7003;41397;49.972;18.944;2023-04-24T01:20:16;43;38;26
55549;PMS7003;41397;49.972;18.944;2023-04-24T01:23:19;36;33;23
55549;PMS7003;41397;49.972;18.944;2023-04-24T01:26:21;33;31;23
55549;PMS7003;41397;49.972;18.944;2023-04-24T01:29:25;46;39;22
55549;PMS7003;41397;49.972;18.944;2023-04-24T01:32:27;40;36;25
55549;PMS7003;41397;49.972;18.944;2023-04-24T01:35:29;30;29;22
55549;PMS7003;41397;49.972;18.944;2023-04-24T01:38:30;36;33;18
55549;PMS7003;41397;49.972;18.944;2023-04-24T01:41:31;42;35;25
55549;PMS7003;41397;49.972;18.944;2023-04-24T01:44:33;44;38;25
55549;PMS7003;41397;49.972;18.944;2023-04-24T01:47:35;44;38;26
55549;PMS7003;41397;49.972;18.944;2023-04-24T01:50:37;39;34;24
55549;PMS7003;41397;49.972;18.944;2023-04-24T01:53:38;37;33;24
55549;PMS7003;41397;49.972;18.944;2023-04-24T01:56:40;36;33;23
55549;PMS7003;41397;49.972;18.944;2023-04-24T01:59:46;41;34;22
55549;PMS7003;41397;49.972;18.944;2023-04-24T02:02:48;37;33;22
55549;PMS7003;41397;49.972;18.944;2023-04-24T02:05:49;38;34;23
55549;PMS7003;41397;49.972;18.944;2023-04-24T02:08:50;34;31;22
55549;PMS7003;41397;49.972;18.944;2023-04-24T02:11:53;46;39;26
55549;PMS7003;41397;49.972;18.944;2023-04-24T02:14:54;40;36;26
55549;PMS7003;41397;49.972;18.944;2023-04-24T02:17:55;37;34;25
55549;PMS7003;41397;49.972;18.944;2023-04-24T02:20:57;51;43;29
55549;PMS7003;41397;49.972;18.944;2023-04-24T02:23:58;50;43;28
55549;PMS7003;41397;49.972;18.944;2023-04-24T02:26:59;44;37;25
55549;PMS7003;41397;49.972;18.944;2023-04-24T02:30:07;43;38;27
55549;PMS7003;41397;49.972;18.944;2023-04-24T02:33:08;43;38;25
55549;PMS7003;41397;49.972;18.944;2023-04-24T02:36:10;43;37;27
55549;PMS7003;41397;49.972;18.944;2023-04-24T02:39:13;42;37;22
55549;PMS7003;41397;49.972;18.944;2023-04-24T02:42:16;40;35;23
55549;PMS7003;41397;49.972;18.944;2023-04-24T02:45:18;42;37;23
55549;PMS7003;41397;49.972;18.944;2023-04-24T02:48:19;38;34;23
55549;PMS7003;41397;49.972;18.944;2023-04-24T02:51:21;37;34;23
55549;PMS7003;41397;49.972;18.944;2023-04-24T02:54:23;46;37;23
55549;PMS7003;41397;49.972;18.944;2023-04-24T02:57:24;28;28;20
55549;PMS7003;41397;49.972;18.944;2023-04-24T03:00:26;30;29;20
55549;PMS7003;41397;49.972;18.944;2023-04-24T03:03:27;27;26;19
55549;PMS7003;41397;49.972;18.944;2023-04-24T03:06:28;24;24;19
55549;PMS7003;41397;49.972;18.944;2023-04-24T03:09:33;40;32;21
55549;PMS7003;41397;49.972;18.944;2023-04-24T03:12:34;25;25;18
55549;PMS7003;41397;49.972;18.944;2023-04-24T03:15:35;29;27;21
55549;PMS7003;41397;49.972;18.944;2023-04-24T03:18:37;24;24;18
55549;PMS7003;41397;49.972;18.944;2023-04-24T03:21:38;28;28;20
55549;PMS7003;41397;49.972;18.944;2023-04-24T03:24:41;31;29;20
55549;PMS7003;41397;49.972;18.944;2023-04-24T03:27:42;30;29;20
55549;PMS7003;41397;49.972;18.944;2023-04-24T03:30:46;28;28;22
55549;PMS7003;41397;49.972;18.944;2023-04-24T03:33:47;29;27;20
55549;PMS7003;41397;49.972;18.944;2023-04-24T03:36:49;37;34;23
55549;PMS7003;41397;49.972;18.944;2023-04-24T03:39:50;38;35;20
55549;PMS7003;41397;49.972;18.944;2023-04-24T03:42:51;33;31;22
55549;PMS7003;41397;49.972;18.944;2023-04-24T03:45:53;33;30;20
55549;PMS7003;41397;49.972;18.944;2023-04-24T03:48:54;36;33;23
55549;PMS7003;41397;49.972;18.944;2023-04-24T03:51:56;32;30;20
55549;PMS7003;41397;49.972;18.944;2023-04-24T03:54:57;38;34;24
55549;PMS7003;41397;49.972;18.944;2023-04-24T03:57:59;40;35;25
55549;PMS7003;41397;49.972;18.944;2023-04-24T04:01:01;32;30;22
55549;PMS7003;41397;49.972;18.944;2023-04-24T04:04:04;39;35;24
55549;PMS7003;41397;49.972;18.944;2023-04-24T04:07:05;37;30;21
55549;PMS7003;41397;49.972;18.944;2023-04-24T04:10:08;38;35;23
55549;PMS7003;41397;49.972;18.944;2023-04-24T04:13:09;41;32;21
55549;PMS7003;41397;49.972;18.944;2023-04-24T04:16:13;41;36;24
55549;PMS7003;41397;49.972;18.944;2023-04-24T04:19:14;41;35;23
55549;PMS7003;41397;49.972;18.944;2023-04-24T04:22:16;36;33;21
55549;PMS7003;41397;49.972;18.944;2023-04-24T04:25:17;42;37;25
55549;PMS7003;41397;49.972;18.944;2023-04-24T04:28:20;41;37;25
55549;PMS7003;41397;49.972;18.944;2023-04-24T04:31:22;34;32;24
55549;PMS7003;41397;49.972;18.944;2023-04-24T04:34:26;29;28;19
55549;PMS7003;41397;49.972;18.944;2023-04-24T04:37:27;33;31;23
55549;PMS7003;41397;49.972;18.944;2023-04-24T04:40:30;37;32;24
55549;PMS7003;41397;49.972;18.944;2023-04-24T04:43:32;34;31;22
55549;PMS7003;41397;49.972;18.944;2023-04-24T04:46:35;36;32;22
55549;PMS7003;41397;49.972;18.944;2023-04-24T04:49:39;34;32;23
55549;PMS7003;41397;49.972;18.944;2023-04-24T04:52:41;34;32;22
55549;PMS7003;41397;49.972;18.944;2023-04-24T04:55:43;23;23;18
55549;PMS7003;41397;49.972;18.944;2023-04-24T04:58:44;33;31;23
55549;PMS7003;41397;49.972;18.944;2023-04-24T05:01:46;29;28;21
55549;PMS7003;41397;49.972;18.944;2023-04-24T05:04:47;22;22;17
55549;PMS7003;41397;49.972;18.944;2023-04-24T05:07:50;24;24;17
55549;PMS7003;41397;49.972;18.944;2023-04-24T05:10:51;33;31;20
55549;PMS7003;41397;49.972;18.944;2023-04-24T05:13:53;26;25;20
55549;PMS7003;41397;49.972;18.944;2023-04-24T05:17:01;31;30;21
55549;PMS7003;41397;49.972;18.944;2023-04-24T05:20:28;29;28;21
55549;PMS7003;41397;49.972;18.944;2023-04-24T05:23:29;20;20;16
55549;PMS7003;41397;49.972;18.944;2023-04-24T05:36:51;22;22;18
55549;PMS7003;41397;49.972;18.944;2023-04-24T05:39:54;27;27;17
55549;PMS7003;41397;49.972;18.944;2023-04-24T05:42:55;25;25;20
55549;PMS7003;41397;49.972;18.944;2023-04-24T05:45:56;27;27;20
55549;PMS7003;41397;49.972;18.944;2023-04-24T05:48:58;28;26;20
55549;PMS7003;41397;49.972;18.944;2023-04-24T05:55:30;27;27;20
55549;PMS7003;41397;49.972;18.944;2023-04-24T05:58:32;17;17;15
55549;PMS7003;41397;49.972;18.944;2023-04-24T06:01:33;22;22;17
55549;PMS7003;41397;49.972;18.944;2023-04-24T06:04:36;21;21;18
55549;PMS7003;41397;49.972;18.944;2023-04-24T06:07:38;20;20;16
55549;PMS7003;41397;49.972;18.944;2023-04-24T06:10:39;15;15;14
55549;PMS7003;41397;49.972;18.944;2023-04-24T06:13:40;14;14;12
55549;PMS7003;41397;49.972;18.944;2023-04-24T06:16:42;17;17;13
55549;PMS7003;41397;49.972;18.944;2023-04-24T06:19:44;21;21;15
55549;PMS7003;41397;49.972;18.944;2023-04-24T06:22:45;20;20;15
55549;PMS7003;41397;49.972;18.944;2023-04-24T06:25:47;15;15;13
55549;PMS7003;41397;49.972;18.944;2023-04-24T06:28:49;14;14;14
55549;PMS7003;41397;49.972;18.944;2023-04-24T06:31:51;16;16;11
55549;PMS7003;41397;49.972;18.944;2023-04-24T06:34:53;11;11;10
55549;PMS7003;41397;49.972;18.944;2023-04-24T06:37:55;19;19;16
55549;PMS7003;41397;49.972;18.944;2023-04-24T06:40:57;16;16;14
55549;PMS7003;41397;49.972;18.944;2023-04-24T06:43:58;18;18;17
55549;PMS7003;41397;49.972;18.944;2023-04-24T06:46:59;14;14;10
55549;PMS7003;41397;49.972;18.944;2023-04-24T06:50:03;17;17;15
55549;PMS7003;41397;49.972;18.944;2023-04-24T06:53:05;17;17;14
55549;PMS7003;41397;49.972;18.944;2023-04-24T06:56:07;17;17;10
55549;PMS7003;41397;49.972;18.944;2023-04-24T06:59:08;15;15;14
55549;PMS7003;41397;49.972;18.944;2023-04-24T07:02:11;18;18;15
55549;PMS7003;41397;49.972;18.944;2023-04-24T07:05:12;10;10;10
55549;PMS7003;41397;49.972;18.944;2023-04-24T07:08:16;16;16;13
55549;PMS7003;41397;49.972;18.944;2023-04-24T07:11:18;17;17;12
55549;PMS7003;41397;49.972;18.944;2023-04-24T07:14:21;16;16;13
55549;PMS7003;41397;49.972;18.944;2023-04-24T07:17:23;17;17;13
55549;PMS7003;41397;49.972;18.944;2023-04-24T07:20:25;15;15;12
55549;PMS7003;41397;49.972;18.944;2023-04-24T07:23:29;14;14;11
55549;PMS7003;41397;49.972;18.944;2023-04-24T07:26:32;16;16;14
55549;PMS7003;41397;49.972;18.944;2023-04-24T07:29:33;17;17;15
55549;PMS7003;41397;49.972;18.944;2023-04-24T07:32:34;13;13;10
55549;PMS7003;41397;49.972;18.944;2023-04-24T07:35:35;10;10;9
55549;PMS7003;41397;49.972;18.944;2023-04-24T07:38:37;38;34;24
55549;PMS7003;41397;49.972;18.944;2023-04-24T07:41:39;39;35;25
55549;PMS7003;41397;49.972;18.944;2023-04-24T07:44:41;14;13;12
55549;PMS7003;41397;49.972;18.944;2023-04-24T07:47:43;17;17;12
55549;PMS7003;41397;49.972;18.944;2023-04-24T07:50:46;12;12;10
55549;PMS7003;41397;49.972;18.944;2023-04-24T07:53:47;14;14;11
55549;PMS7003;41397;49.972;18.944;2023-04-24T07:56:49;12;12;9
55549;PMS7003;41397;49.972;18.944;2023-04-24T07:59:50;9;9;8
55549;PMS7003;41397;49.972;18.944;2023-04-24T08:02:52;10;10;10
55549;PMS7003;41397;49.972;18.944;2023-04-24T08:05:53;13;13;9
55549;PMS7003;41397;49.972;18.944;2023-04-24T08:08:56;7;7;7
55549;PMS7003;41397;49.972;18.944;2023-04-24T08:11:58;11;11;9
55549;PMS7003;41397;49.972;18.944;2023-04-24T08:15:01;11;11;9
55549;PMS7003;41397;49.972;18.944;2023-04-24T08:18:03;9;9;8
55549;PMS7003;41397;49.972;18.944;2023-04-24T08:21:05;13;13;10
55549;PMS7003;41397;49.972;18.944;2023-04-24T08:24:09;13;13;9
55549;PMS7003;41397;49.972;18.944;2023-04-24T08:30:25;16;16;11
55549;PMS7003;41397;49.972;18.944;2023-04-24T08:33:27;8;8;8
55549;PMS7003;41397;49.972;18.944;2023-04-24T08:36:35;8;8;7
55549;PMS7003;41397;49.972;18.944;2023-04-24T08:39:38;15;15;12
55549;PMS7003;41397;49.972;18.944;2023-04-24T08:42:40;57;40;22
55549;PMS7003;41397;49.972;18.944;2023-04-24T08:45:50;18;16;9
55549;PMS7003;41397;49.972;18.944;2023-04-24T08:48:57;15;15;12
55549;PMS7003;41397;49.972;18.944;2023-04-24T08:52:08;9;9;8
55549;PMS7003;41397;49.972;18.944;2023-04-24T08:55:13;10;10;9
55549;PMS7003;41397;49.972;18.944;2023-04-24T08:58:18;7;7;7
55549;PMS7003;41397;49.972;18.944;2023-04-24T09:01:22;8;8;7
55549;PMS7003;41397;49.972;18.944;2023-04-24T09:04:28;9;9;8
55549;PMS7003;41397;49.972;18.944;2023-04-24T09:07:31;9;9;7
55549;PMS7003;41397;49.972;18.944;2023-04-24T09:10:37;12;12;10
55549;PMS7003;41397;49.972;18.944;2023-04-24T09:13:56;10;10;9
55549;PMS7003;41397;49.972;18.944;2023-04-24T09:20:30;13;11;7
55549;PMS7003;41397;49.972;18.944;2023-04-24T09:27:22;8;8;7
55549;PMS7003;41397;49.972;18.944;2023-04-24T09:30:24;10;10;9
55549;PMS7003;41397;49.972;18.944;2023-04-24T09:33:25;9;9;7
55549;PMS7003;41397;49.972;18.944;2023-04-24T09:36:28;9;9;7
55549;PMS7003;41397;49.972;18.944;2023-04-24T09:39:34;5;5;5
55549;PMS7003;41397;49.972;18.944;2023-04-24T09:42:36;8;8;7
55549;PMS7003;41397;49.972;18.944;2023-04-24T09:45:38;7;7;5
55549;PMS7003;41397;49.972;18.944;2023-04-24T09:48:41;10;10;10
55549;PMS7003;41397;49.972;18.944;2023-04-24T09:51:43;8;8;7
55549;PMS7003;41397;49.972;18.944;2023-04-24T09:54:47;9;9;8
55549;PMS7003;41397;49.972;18.944;2023-04-24T09:57:58;12;12;9
55549;PMS7003;41397;49.972;18.944;2023-04-24T10:01:06;13;13;11
55549;PMS7003;41397;49.972;18.944;2023-04-24T10:04:14;11;11;9
55549;PMS7003;41397;49.972;18.944;2023-04-24T10:07:24;10;10;8
55549;PMS7003;41397;49.972;18.944;2023-04-24T10:10:46;13;13;8
55549;PMS7003;41397;49.972;18.944;2023-04-24T10:14:20;10;10;9
55549;PMS7003;41397;49.972;18.944;2023-04-24T10:17:22;13;13;11
55549;PMS7003;41397;49.972;18.944;2023-04-24T10:20:27;14;14;11
55549;PMS7003;41397;49.972;18.944;2023-04-24T10:23:31;10;10;9
55549;PMS7003;41397;49.972;18.944;2023-04-24T10:26:34;11;11;10
55549;PMS7003;41397;49.972;18.944;2023-04-24T10:29:37;8;8;6
55549;PMS7003;41397;49.972;18.944;2023-04-24T10:32:41;10;10;9
55549;PMS7003;41397;49.972;18.944;2023-04-24T10:35:48;9;9;9
55549;PMS7003;41397;49.972;18.944;2023-04-24T10:38:59;10;10;9
55549;PMS7003;41397;49.972;18.944;2023-04-24T10:42:22;9;9;7
55549;PMS7003;41397;49.972;18.944;2023-04-24T11:02:45;6;6;5
55549;PMS7003;41397;49.972;18.944;2023-04-24T11:13:15;10;10;9
55549;PMS7003;41397;49.972;18.944;2023-04-24T11:23:46;11;11;9
55549;PMS7003;41397;49.972;18.944;2023-04-24T11:26:48;13;13;10
55549;PMS7003;41397;49.972;18.944;2023-04-24T11:33:03;14;14;13
55549;PMS7003;41397;49.972;18.944;2023-04-24T11:36:06;13;13;10
55549;PMS7003;41397;49.972;18.944;2023-04-24T11:39:08;11;11;8
55549;PMS7003;41397;49.972;18.944;2023-04-24T11:42:14;12;12;10
55549;PMS7003;41397;49.972;18.944;2023-04-24T11:45:21;12;12;9
55549;PMS7003;41397;49.972;18.944;2023-04-24T11:48:27;14;14;13
55549;PMS7003;41397;49.972;18.944;2023-04-24T11:51:28;13;13;11
55549;PMS7003;41397;49.972;18.944;2023-04-24T11:54:29;17;17;14
55549;PMS7003;41397;49.972;18.944;2023-04-24T11:57:31;12;12;11
55549;PMS7003;41397;49.972;18.944;2023-04-24T12:10:47;13;13;11
55549;PMS7003;41397;49.972;18.944;2023-04-24T12:24:22;10;10;9
55549;PMS7003;41397;49.972;18.944;2023-04-24T12:27:23;12;12;11
55549;PMS7003;41397;49.972;18.944;2023-04-24T12:30:28;14;14;11
55549;PMS7003;41397;49.972;18.944;2023-04-24T12:33:40;13;13;12
55549;PMS7003;41397;49.972;18.944;2023-04-24T12:36:43;21;21;14
55549;PMS7003;41397;49.972;18.944;2023-04-24T12:42:58;17;17;15
55549;PMS7003;41397;49.972;18.944;2023-04-24T12:46:03;18;18;14
55549;PMS7003;41397;49.972;18.944;2023-04-24T12:49:07;14;14;11
55549;PMS7003;41397;49.972;18.944;2023-04-24T12:52:08;18;18;14
55549;PMS7003;41397;49.972;18.944;2023-04-24T12:55:10;24;24;15
55549;PMS7003;41397;49.972;18.944;2023-04-24T12:58:13;12;12;10
55549;PMS7003;41397;49.972;18.944;2023-04-24T13:01:16;22;22;16
55549;PMS7003;41397;49.972;18.944;2023-04-24T13:04:17;18;18;14
55549;PMS7003;41397;49.972;18.944;2023-04-24T13:07:19;15;15;13
55549;PMS7003;41397;49.972;18.944;2023-04-24T13:10:22;18;18;12
55549;PMS7003;41397;49.972;18.944;2023-04-24T13:13:23;17;17;13
55549;PMS7003;41397;49.972;18.944;2023-04-24T13:16:25;12;12;11
55549;PMS7003;41397;49.972;18.944;2023-04-24T13:19:27;17;17;14
55549;PMS7003;41397;49.972;18.944;2023-04-24T13:22:29;18;18;13
55549;PMS7003;41397;49.972;18.944;2023-04-24T13:25:34;20;20;16
55549;PMS7003;41397;49.972;18.944;2023-04-24T13:28:39;13;13;9
55549;PMS7003;41397;49.972;18.944;2023-04-24T13:31:41;19;19;12
55549;PMS7003;41397;49.972;18.944;2023-04-24T13:34:43;19;19;15
55549;PMS7003;41397;49.972;18.944;2023-04-24T13:37:45;18;18;12
55549;PMS7003;41397;49.972;18.944;2023-04-24T13:43:57;22;22;16
55549;PMS7003;41397;49.972;18.944;2023-04-24T13:47:01;15;15;13
55549;PMS7003;41397;49.972;18.944;2023-04-24T13:50:03;13;13;9
55549;PMS7003;41397;49.972;18.944;2023-04-24T13:53:11;10;10;10
55549;PMS7003;41397;49.972;18.944;2023-04-24T13:56:13;11;11;10
55549;PMS7003;41397;49.972;18.944;2023-04-24T13:59:15;13;12;9
55549;PMS7003;41397;49.972;18.944;2023-04-24T14:02:17;13;13;9
55549;PMS7003;41397;49.972;18.944;2023-04-24T14:05:20;7;7;7
55549;PMS7003;41397;49.972;18.944;2023-04-24T14:08:26;11;11;8
55549;PMS7003;41397;49.972;18.944;2023-04-24T14:11:28;9;9;8
55549;PMS7003;41397;49.972;18.944;2023-04-24T14:14:30;11;11;7
55549;PMS7003;41397;49.972;18.944;2023-04-24T14:17:31;11;11;9
55549;PMS7003;41397;49.972;18.944;2023-04-24T14:20:33;10;10;7
55549;PMS7003;41397;49.972;18.944;2023-04-24T14:23:35;56;47;32
55549;PMS7003;41397;49.972;18.944;2023-04-24T14:26:36;9;9;7
55549;PMS7003;41397;49.972;18.944;2023-04-24T14:29:38;7;7;6
55549;PMS7003;41397;49.972;18.944;2023-04-24T14:32:39;20;20;17
55549;PMS7003;41397;49.972;18.944;2023-04-24T14:35:41;9;9;8
55549;PMS7003;41397;49.972;18.944;2023-04-24T14:38:44;10;10;8
55549;PMS7003;41397;49.972;18.944;2023-04-24T14:41:46;11;11;8
55549;PMS7003;41397;49.972;18.944;2023-04-24T14:44:47;9;9;8
55549;PMS7003;41397;49.972;18.944;2023-04-24T14:47:49;9;9;7
55549;PMS7003;41397;49.972;18.944;2023-04-24T14:50:50;13;13;10
55549;PMS7003;41397;49.972;18.944;2023-04-24T14:53:52;8;8;7
55549;PMS7003;41397;49.972;18.944;2023-04-24T14:56:54;10;10;8
55549;PMS7003;41397;49.972;18.944;2023-04-24T14:59:58;14;14;11
55549;PMS7003;41397;49.972;18.944;2023-04-24T15:03:00;12;12;9
55549;PMS7003;41397;49.972;18.944;2023-04-24T15:06:02;7;7;6
55549;PMS7003;41397;49.972;18.944;2023-04-24T15:09:03;9;9;7
55549;PMS7003;41397;49.972;18.944;2023-04-24T15:12:05;9;9;8
55549;PMS7003;41397;49.972;18.944;2023-04-24T15:15:08;11;11;10
55549;PMS7003;41397;49.972;18.944;2023-04-24T15:21:35;12;12;10
55549;PMS7003;41397;49.972;18.944;2023-04-24T15:24:53;10;10;9
55549;PMS7003;41397;49.972;18.944;2023-04-24T15:28:18;9;9;8
55549;PMS7003;41397;49.972;18.944;2023-04-24T15:31:20;16;16;10
55549;PMS7003;41397;49.972;18.944;2023-04-24T15:34:26;12;12;9
55549;PMS7003;41397;49.972;18.944;2023-04-24T15:37:28;11;11;10
55549;PMS7003;41397;49.972;18.944;2023-04-24T15:40:29;20;17;11
55549;PMS7003;41397;49.972;18.944;2023-04-24T15:43:34;17;17;14
55549;PMS7003;41397;49.972;18.944;2023-04-24T15:46:36;18;18;12
55549;PMS7003;41397;49.972;18.944;2023-04-24T15:49:43;29;28;21
55549;PMS7003;41397;49.972;18.944;2023-04-24T15:55:54;16;16;11
55549;PMS7003;41397;49.972;18.944;2023-04-24T15:58:59;17;17;14
55549;PMS7003;41397;49.972;18.944;2023-04-24T16:02:00;20;20;13
55549;PMS7003;41397;49.972;18.944;2023-04-24T16:05:06;15;15;12
55549;PMS7003;41397;49.972;18.944;2023-04-24T16:08:08;21;21;14
55549;PMS7003;41397;49.972;18.944;2023-04-24T16:11:10;18;18;13
55549;PMS7003;41397;49.972;18.944;2023-04-24T16:14:12;19;19;14
55549;PMS7003;41397;49.972;18.944;2023-04-24T16:17:14;18;18;13
55549;PMS7003;41397;49.972;18.944;2023-04-24T16:20:15;23;23;18
55549;PMS7003;41397;49.972;18.944;2023-04-24T16:23:17;30;29;20
55549;PMS7003;41397;49.972;18.944;2023-04-24T16:26:18;28;27;19
55549;PMS7003;41397;49.972;18.944;2023-04-24T16:29:22;24;24;19
55549;PMS7003;41397;49.972;18.944;2023-04-24T16:32:25;22;22;16
55549;PMS7003;41397;49.972;18.944;2023-04-24T16:35:38;22;22;17
55549;PMS7003;41397;49.972;18.944;2023-04-24T16:38:40;20;20;16
55549;PMS7003;41397;49.972;18.944;2023-04-24T16:46:13;25;25;17
55549;PMS7003;41397;49.972;18.944;2023-04-24T17:03:00;28;27;20
55549;PMS7003;41397;49.972;18.944;2023-04-24T17:06:05;22;22;15
55549;PMS7003;41397;49.972;18.944;2023-04-24T17:09:07;26;26;18
55549;PMS7003;41397;49.972;18.944;2023-04-24T17:12:16;25;25;18
55549;PMS7003;41397;49.972;18.944;2023-04-24T17:15:18;21;21;17
55549;PMS7003;41397;49.972;18.944;2023-04-24T17:18:20;39;29;20
55549;PMS7003;41397;49.972;18.944;2023-04-24T17:21:21;27;26;18
55549;PMS7003;41397;49.972;18.944;2023-04-24T17:24:23;26;25;18
55549;PMS7003;41397;49.972;18.944;2023-04-24T17:27:25;40;35;24
55549;PMS7003;41397;49.972;18.944;2023-04-24T17:30:27;30;28;19
55549;PMS7003;41397;49.972;18.944;2023-04-24T17:33:37;25;25;20
55549;PMS7003;41397;49.972;18.944;2023-04-24T17:36:59;26;26;20
55549;PMS7003;41397;49.972;18.944;2023-04-24T17:40:06;33;30;24
55549;PMS7003;41397;49.972;18.944;2023-04-24T17:43:08;33;30;21
55549;PMS7003;41397;49.972;18.944;2023-04-24T17:46:09;26;26;17
55549;PMS7003;41397;49.972;18.944;2023-04-24T17:49:12;30;28;22
55549;PMS7003;41397;49.972;18.944;2023-04-24T17:52:14;37;33;21
55549;PMS7003;41397;49.972;18.944;2023-04-24T18:05:49;35;32;20
55549;PMS7003;41397;49.972;18.944;2023-04-24T18:12:22;46;37;23
55549;PMS7003;41397;49.972;18.944;2023-04-24T18:22:25;52;43;28
55549;PMS7003;41397;49.972;18.944;2023-04-24T18:25:34;42;36;25
55549;PMS7003;41397;49.972;18.944;2023-04-24T18:28:38;54;44;28
55549;PMS7003;41397;49.972;18.944;2023-04-24T18:31:43;47;40;28
55549;PMS7003;41397;49.972;18.944;2023-04-24T18:34:45;52;43;25
55549;PMS7003;41397;49.972;18.944;2023-04-24T18:37:57;48;40;27
55549;PMS7003;41397;49.972;18.944;2023-04-24T18:44:39;48;40;25
55549;PMS7003;41397;49.972;18.944;2023-04-24T19:04:25;37;33;23
55549;PMS7003;41397;49.972;18.944;2023-04-24T19:07:33;36;32;22
55549;PMS7003;41397;49.972;18.944;2023-04-24T19:10:55;36;32;18
55549;PMS7003;41397;49.972;18.944;2023-04-24T19:14:03;41;35;24
55549;PMS7003;41397;49.972;18.944;2023-04-24T19:17:12;38;33;22
55549;PMS7003;41397;49.972;18.944;2023-04-24T19:23:44;44;37;25
55549;PMS7003;41397;49.972;18.944;2023-04-24T19:27:02;44;37;24
55549;PMS7003;41397;49.972;18.944;2023-04-24T19:30:05;50;39;25
55549;PMS7003;41397;49.972;18.944;2023-04-24T19:33:08;43;37;22
55549;PMS7003;41397;49.972;18.944;2023-04-24T19:39:23;41;35;24
55549;PMS7003;41397;49.972;18.944;2023-04-24T19:42:25;45;35;24
55549;PMS7003;41397;49.972;18.944;2023-04-24T19:45:27;40;35;23
55549;PMS7003;41397;49.972;18.944;2023-04-24T19:48:33;40;35;25
55549;PMS7003;41397;49.972;18.944;2023-04-24T19:51:35;43;36;24
55549;PMS7003;41397;49.972;18.944;2023-04-24T19:54:38;33;29;21
55549;PMS7003;41397;49.972;18.944;2023-04-24T19:57:39;41;32;22
55549;PMS7003;41397;49.972;18.944;2023-04-24T20:00:42;30;28;19
55549;PMS7003;41397;49.972;18.944;2023-04-24T20:03:43;33;29;21
55549;PMS7003;41397;49.972;18.944;2023-04-24T20:06:45;36;31;21
55549;PMS7003;41397;49.972;18.944;2023-04-24T20:09:49;32;29;20
55549;PMS7003;41397;49.972;18.944;2023-04-24T20:12:51;39;34;23
55549;PMS7003;41397;49.972;18.944;2023-04-24T20:15:53;43;35;22
55549;PMS7003;41397;49.972;18.944;2023-04-24T20:18:54;31;29;20
55549;PMS7003;41397;49.972;18.944;2023-04-24T20:21:56;25;24;18
55549;PMS7003;41397;49.972;18.944;2023-04-24T20:24:58;14;14;10
55549;PMS7003;41397;49.972;18.944;2023-04-24T20:28:00;32;29;18
55549;PMS7003;41397;49.972;18.944;2023-04-24T20:34:15;14;14;11
55549;PMS7003;41397;49.972;18.944;2023-04-24T20:37:16;7;7;6
55549;PMS7003;41397;49.972;18.944;2023-04-24T20:40:24;8;8;6
55549;PMS7003;41397;49.972;18.944;2023-04-24T20:43:42;9;9;8
55549;PMS7003;41397;49.972;18.944;2023-04-24T20:46:44;14;14;10
55549;PMS7003;41397;49.972;18.944;2023-04-24T20:49:46;12;12;8
55549;PMS7003;41397;49.972;18.944;2023-04-24T20:52:48;12;12;9
55549;PMS7003;41397;49.972;18.944;2023-04-24T20:55:50;13;13;10
55549;PMS7003;41397;49.972;18.944;2023-04-24T20:58:52;20;20;16
55549;PMS7003;41397;49.972;18.944;2023-04-24T21:01:53;22;22;15
55549;PMS7003;41397;49.972;18.944;2023-04-24T21:04:55;17;17;13
55549;PMS7003;41397;49.972;18.944;2023-04-24T21:07:59;19;19;15
55549;PMS7003;41397;49.972;18.944;2023-04-24T21:11:01;20;20;13
55549;PMS7003;41397;49.972;18.944;2023-04-24T21:14:02;21;21;17
55549;PMS7003;41397;49.972;18.944;2023-04-24T21:17:04;20;20;12
55549;PMS7003;41397;49.972;18.944;2023-04-24T21:20:06;19;19;16
55549;PMS7003;41397;49.972;18.944;2023-04-24T21:23:09;24;21;15
55549;PMS7003;41397;49.972;18.944;2023-04-24T21:26:10;17;17;15
55549;PMS7003;41397;49.972;18.944;2023-04-24T21:29:12;16;16;12
55549;PMS7003;41397;49.972;18.944;2023-04-24T21:32:14;24;24;13
55549;PMS7003;41397;49.972;18.944;2023-04-24T21:35:15;19;19;13
55549;PMS7003;41397;49.972;18.944;2023-04-24T21:38:17;20;20;14
55549;PMS7003;41397;49.972;18.944;2023-04-24T21:41:24;18;18;11
55549;PMS7003;41397;49.972;18.944;2023-04-24T21:44:26;15;15;11
55549;PMS7003;41397;49.972;18.944;2023-04-24T21:47:28;16;16;11
55549;PMS7003;41397;49.972;18.944;2023-04-24T21:50:29;15;15;11
55549;PMS7003;41397;49.972;18.944;2023-04-24T21:53:30;17;17;11
55549;PMS7003;41397;49.972;18.944;2023-04-24T21:56:32;16;16;13
55549;PMS7003;41397;49.972;18.944;2023-04-24T21:59:34;19;19;13
55549;PMS7003;41397;49.972;18.944;2023-04-24T22:02:35;19;19;11
55549;PMS7003;41397;49.972;18.944;2023-04-24T22:05:37;28;18;12
55549;PMS7003;41397;49.972;18.944;2023-04-24T22:08:38;16;16;12